createdAt,value
2017-12-23T00:00:34.936Z,0
2017-12-23T00:01:44.653Z,0
2017-12-23T00:02:54.633Z,0
2017-12-23T00:04:04.617Z,0
2017-12-23T00:05:14.601Z,0
2017-12-23T00:06:24.595Z,0
2017-12-23T00:07:34.574Z,0
2017-12-23T00:08:44.548Z,0
2017-12-23T00:09:54.000Z,0
2017-12-23T00:11:03.720Z,0
2017-12-23T00:12:13.443Z,0
2017-12-23T00:13:23.425Z,0
2017-12-23T00:14:33.405Z,0
2017-12-23T00:15:43.382Z,0
2017-12-23T00:16:53.737Z,0
2017-12-23T00:18:03.456Z,0
2017-12-23T00:19:13.431Z,0
2017-12-23T00:20:23.409Z,0
2017-12-23T00:21:33.398Z,0
2017-12-23T00:22:43.389Z,0
2017-12-23T00:23:53.372Z,0
2017-12-23T00:25:03.356Z,0
2017-12-23T00:26:13.073Z,0
2017-12-23T00:27:23.056Z,0
2017-12-23T00:28:33.033Z,0
2017-12-23T00:29:42.802Z,0
2017-12-23T00:30:52.791Z,0
2017-12-23T00:32:02.768Z,0
2017-12-23T00:33:12.483Z,0
2017-12-23T00:34:22.463Z,0
2017-12-23T00:35:32.442Z,0
2017-12-23T00:36:42.422Z,0
2017-12-23T00:37:52.138Z,0
2017-12-23T00:39:02.119Z,0
2017-12-23T00:40:12.099Z,0
2017-12-23T00:41:21.549Z,0
2017-12-23T00:42:31.530Z,0
2017-12-23T00:43:41.521Z,0
2017-12-23T00:44:51.500Z,0
2017-12-23T00:46:01.273Z,0
2017-12-23T00:47:11.254Z,0
2017-12-23T00:48:21.277Z,0
2017-12-23T00:49:31.258Z,0
2017-12-23T00:50:41.297Z,0
2017-12-23T00:51:51.281Z,0
2017-12-23T00:53:01.261Z,0
2017-12-23T00:54:11.241Z,0
2017-12-23T00:55:21.222Z,0
2017-12-23T00:56:31.209Z,0
2017-12-23T00:57:41.192Z,0
2017-12-23T00:58:51.177Z,0
2017-12-23T01:00:01.156Z,0
2017-12-23T01:01:11.138Z,0
2017-12-23T01:02:21.125Z,0
2017-12-23T01:03:30.843Z,0
2017-12-23T01:04:40.557Z,0
2017-12-23T01:05:50.543Z,0
2017-12-23T01:07:00.519Z,0
2017-12-23T01:08:10.504Z,0
2017-12-23T01:09:20.220Z,0
2017-12-23T01:10:30.198Z,0
2017-12-23T01:11:40.180Z,0
2017-12-23T01:12:49.897Z,0
2017-12-23T01:13:59.878Z,0
2017-12-23T01:15:09.860Z,0
2017-12-23T01:16:19.838Z,0
2017-12-23T01:17:29.814Z,0
2017-12-23T01:18:39.794Z,0
2017-12-23T01:19:49.513Z,0
2017-12-23T01:20:59.499Z,0
2017-12-23T01:22:09.480Z,0
2017-12-23T01:23:19.471Z,0
2017-12-23T01:24:29.451Z,0
2017-12-23T01:25:39.432Z,0
2017-12-23T01:26:49.411Z,0
2017-12-23T01:27:59.396Z,0
2017-12-23T01:29:09.110Z,0
2017-12-23T01:30:19.091Z,0
2017-12-23T01:31:29.068Z,0
2017-12-23T01:32:39.048Z,0
2017-12-23T01:33:49.078Z,0
2017-12-23T01:34:59.064Z,0
2017-12-23T01:36:08.779Z,0
2017-12-23T01:37:20.230Z,0
2017-12-23T01:38:30.211Z,0
2017-12-23T01:39:40.194Z,0
2017-12-23T01:40:50.179Z,0
2017-12-23T01:42:00.161Z,0
2017-12-23T01:43:10.154Z,0
2017-12-23T01:44:20.139Z,0
2017-12-23T01:45:30.119Z,0
2017-12-23T01:46:40.098Z,0
2017-12-23T01:47:50.079Z,0
2017-12-23T01:49:00.064Z,0
2017-12-23T01:50:09.517Z,0
2017-12-23T01:51:19.499Z,0
2017-12-23T01:52:29.488Z,0
2017-12-23T01:53:39.470Z,0
2017-12-23T01:54:49.447Z,0
2017-12-23T01:55:59.422Z,0
2017-12-23T01:57:09.408Z,0
2017-12-23T01:58:19.395Z,0
2017-12-23T01:59:29.110Z,0
2017-12-23T02:00:39.089Z,0
2017-12-23T02:01:49.069Z,0
2017-12-23T02:02:59.046Z,0
2017-12-23T02:04:08.759Z,0
2017-12-23T02:05:18.734Z,0
2017-12-23T02:06:28.714Z,0
2017-12-23T02:07:38.694Z,0
2017-12-23T02:08:48.673Z,0
2017-12-23T02:09:58.649Z,0
2017-12-23T02:11:08.638Z,0
2017-12-23T02:12:18.358Z,0
2017-12-23T02:13:28.345Z,0
2017-12-23T02:14:38.372Z,0
2017-12-23T02:15:48.091Z,0
2017-12-23T02:16:58.073Z,0
2017-12-23T02:18:08.048Z,0
2017-12-23T02:19:18.030Z,0
2017-12-23T02:20:27.742Z,0
2017-12-23T02:21:37.468Z,0
2017-12-23T02:22:47.509Z,0
2017-12-23T02:23:57.788Z,0
2017-12-23T02:25:07.502Z,0
2017-12-23T02:26:17.273Z,0
2017-12-23T02:27:27.256Z,0
2017-12-23T02:28:37.237Z,0
2017-12-23T02:29:47.218Z,0
2017-12-23T02:30:56.939Z,0
2017-12-23T02:32:06.919Z,0
2017-12-23T02:33:16.638Z,0
2017-12-23T02:34:26.629Z,0
2017-12-23T02:35:36.619Z,0
2017-12-23T02:36:46.338Z,0
2017-12-23T02:37:56.318Z,0
2017-12-23T02:39:06.298Z,0
2017-12-23T02:40:16.021Z,0
2017-12-23T02:41:25.734Z,0
2017-12-23T02:42:35.458Z,0
2017-12-23T02:43:45.448Z,0
2017-12-23T02:44:55.428Z,0
2017-12-23T02:46:05.419Z,0
2017-12-23T02:47:15.449Z,0
2017-12-23T02:48:25.435Z,0
2017-12-23T02:49:35.424Z,0
2017-12-23T02:50:45.423Z,0
2017-12-23T02:51:55.422Z,0
2017-12-23T02:53:05.412Z,0
2017-12-23T02:54:15.125Z,0
2017-12-23T02:55:25.113Z,0
2017-12-23T02:56:35.100Z,0
2017-12-23T02:57:44.549Z,0
2017-12-23T02:58:54.526Z,0
2017-12-23T03:00:04.248Z,0
2017-12-23T03:01:13.960Z,0
2017-12-23T03:02:23.685Z,0
2017-12-23T03:03:33.660Z,0
2017-12-23T03:04:43.639Z,0
2017-12-23T03:05:53.628Z,0
2017-12-23T03:07:03.676Z,0
2017-12-23T03:08:13.661Z,0
2017-12-23T03:09:23.640Z,0
2017-12-23T03:10:33.623Z,0
2017-12-23T03:11:43.604Z,0
2017-12-23T03:12:53.585Z,0
2017-12-23T03:14:03.564Z,0
2017-12-23T03:15:13.282Z,0
2017-12-23T03:16:23.413Z,0
2017-12-23T03:17:33.394Z,0
2017-12-23T03:18:43.369Z,0
2017-12-23T03:19:53.355Z,0
2017-12-23T03:21:03.334Z,0
2017-12-23T03:22:13.096Z,0
2017-12-23T03:23:23.147Z,0
2017-12-23T03:24:33.135Z,0
2017-12-23T03:25:43.115Z,0
2017-12-23T03:26:53.095Z,0
2017-12-23T03:28:03.085Z,0
2017-12-23T03:29:13.121Z,0
2017-12-23T03:30:23.109Z,0
2017-12-23T03:31:33.106Z,0
2017-12-23T03:32:43.084Z,0
2017-12-23T03:33:53.060Z,0
2017-12-23T03:35:03.045Z,0
2017-12-23T03:36:13.033Z,0
2017-12-23T03:37:22.757Z,0
2017-12-23T03:38:32.476Z,0
2017-12-23T03:39:42.456Z,0
2017-12-23T03:40:52.438Z,0
2017-12-23T03:42:02.468Z,0
2017-12-23T03:43:12.457Z,0
2017-12-23T03:44:22.434Z,0
2017-12-23T03:45:34.413Z,0
2017-12-23T03:46:44.393Z,0
2017-12-23T03:47:54.368Z,0
2017-12-23T03:49:04.350Z,0
2017-12-23T03:50:14.068Z,0
2017-12-23T03:51:24.048Z,0
2017-12-23T03:52:34.025Z,0
2017-12-23T03:53:44.005Z,0
2017-12-23T03:54:53.983Z,0
2017-12-23T03:56:03.962Z,0
2017-12-23T03:57:13.673Z,0
2017-12-23T03:58:23.648Z,0
2017-12-23T03:59:33.639Z,0
2017-12-23T04:03:31.910Z,0
2017-12-23T04:04:41.888Z,0
2017-12-23T04:05:51.867Z,0
2017-12-23T04:07:01.318Z,0
2017-12-23T04:08:11.040Z,0
2017-12-23T04:09:21.024Z,0
2017-12-23T04:10:31.001Z,0
2017-12-23T04:11:40.983Z,0
2017-12-23T04:12:50.966Z,0
2017-12-23T04:14:00.947Z,0
2017-12-23T04:15:10.922Z,0
2017-12-23T04:16:20.639Z,0
2017-12-23T04:17:30.358Z,0
2017-12-23T04:18:40.333Z,0
2017-12-23T04:19:50.314Z,0
2017-12-23T04:21:00.032Z,0
2017-12-23T04:22:09.748Z,0
2017-12-23T04:23:19.727Z,0
2017-12-23T04:24:29.714Z,0
2017-12-23T04:25:39.430Z,0
2017-12-23T04:26:49.421Z,0
2017-12-23T04:27:59.396Z,0
2017-12-23T04:29:09.382Z,0
2017-12-23T04:30:19.097Z,0
2017-12-23T04:31:29.095Z,0
2017-12-23T04:32:39.078Z,0
2017-12-23T04:33:49.052Z,0
2017-12-23T04:34:58.765Z,0
2017-12-23T04:36:08.807Z,0
2017-12-23T04:37:18.258Z,0
2017-12-23T04:38:27.970Z,0
2017-12-23T04:39:37.946Z,0
2017-12-23T04:40:47.920Z,0
2017-12-23T04:41:57.897Z,0
2017-12-23T04:43:07.878Z,0
2017-12-23T04:44:17.908Z,0
2017-12-23T04:45:27.887Z,0
2017-12-23T04:46:37.871Z,0
2017-12-23T04:47:47.851Z,0
2017-12-23T04:48:57.830Z,0
2017-12-23T04:50:07.813Z,0
2017-12-23T04:51:17.794Z,0
2017-12-23T04:52:27.512Z,0
2017-12-23T04:53:37.498Z,0
2017-12-23T04:54:47.482Z,0
2017-12-23T04:55:59.468Z,0
2017-12-23T04:57:08.921Z,0
2017-12-23T04:58:18.628Z,0
2017-12-23T04:59:28.604Z,0
2017-12-23T05:00:38.583Z,0
2017-12-23T05:01:48.565Z,0
2017-12-23T05:02:58.547Z,0
2017-12-23T05:04:08.261Z,0
2017-12-23T05:05:18.240Z,0
2017-12-23T05:06:28.229Z,0
2017-12-23T05:07:38.207Z,0
2017-12-23T05:08:48.222Z,0
2017-12-23T05:09:58.208Z,0
2017-12-23T05:11:08.190Z,0
2017-12-23T05:12:18.167Z,0
2017-12-23T05:13:28.143Z,0
2017-12-23T05:14:37.595Z,0
2017-12-23T05:15:47.574Z,0
2017-12-23T05:16:57.551Z,0
2017-12-23T05:18:07.530Z,0
2017-12-23T05:19:17.512Z,0
2017-12-23T05:20:27.490Z,0
2017-12-23T05:21:37.472Z,0
2017-12-23T05:22:47.461Z,0
2017-12-23T05:23:57.438Z,0
2017-12-23T05:25:07.718Z,0
2017-12-23T05:26:17.706Z,0
2017-12-23T05:27:27.683Z,0
2017-12-23T05:28:37.661Z,0
2017-12-23T05:29:47.637Z,0
2017-12-23T05:30:57.608Z,0
2017-12-23T05:32:07.587Z,0
2017-12-23T05:33:17.570Z,0
2017-12-23T05:34:27.548Z,0
2017-12-23T05:35:37.532Z,0
2017-12-23T05:36:47.522Z,0
2017-12-23T05:37:57.237Z,0
2017-12-23T05:39:06.952Z,0
2017-12-23T05:40:16.675Z,0
2017-12-23T05:41:26.653Z,0
2017-12-23T05:42:36.633Z,0
2017-12-23T05:43:46.611Z,0
2017-12-23T05:44:56.643Z,0
2017-12-23T05:46:06.622Z,0
2017-12-23T05:47:16.601Z,0
2017-12-23T05:48:26.578Z,0
2017-12-23T05:49:36.292Z,0
2017-12-23T05:50:46.274Z,0
2017-12-23T05:51:56.260Z,0
2017-12-23T05:53:06.239Z,0
2017-12-23T05:54:16.223Z,0
2017-12-23T05:55:26.204Z,0
2017-12-23T05:56:36.190Z,0
2017-12-23T05:57:46.173Z,0
2017-12-23T05:58:55.885Z,0
2017-12-23T06:00:05.599Z,0
2017-12-23T06:01:15.369Z,0
2017-12-23T06:02:25.355Z,0
2017-12-23T06:03:35.339Z,0
2017-12-23T06:04:45.317Z,0
2017-12-23T06:05:55.296Z,0
2017-12-23T06:07:05.277Z,0
2017-12-23T06:08:15.010Z,0
2017-12-23T06:09:24.990Z,0
2017-12-23T06:10:34.965Z,0
2017-12-23T06:11:44.948Z,0
2017-12-23T06:12:54.667Z,0
2017-12-23T06:14:04.644Z,0
2017-12-23T06:15:14.360Z,0
2017-12-23T06:16:24.337Z,0
2017-12-23T06:17:34.383Z,0
2017-12-23T06:18:44.360Z,0
2017-12-23T06:19:54.072Z,0
2017-12-23T06:21:04.050Z,0
2017-12-23T06:22:14.027Z,0
2017-12-23T06:23:24.014Z,0
2017-12-23T06:24:33.990Z,0
2017-12-23T06:25:43.716Z,0
2017-12-23T06:26:53.427Z,0
2017-12-23T06:28:03.404Z,0
2017-12-23T06:29:13.119Z,0
2017-12-23T06:30:23.150Z,0
2017-12-23T06:31:33.130Z,0
2017-12-23T06:32:42.841Z,0
2017-12-23T06:33:52.822Z,0
2017-12-23T06:35:02.802Z,0
2017-12-23T06:36:12.300Z,0
2017-12-23T06:37:21.973Z,0
2017-12-23T06:38:31.953Z,0
2017-12-23T06:39:41.933Z,0
2017-12-23T06:40:51.916Z,0
2017-12-23T06:42:01.896Z,0
2017-12-23T06:43:11.936Z,0
2017-12-23T06:44:21.944Z,0
2017-12-23T06:45:31.665Z,0
2017-12-23T06:46:42.035Z,0
2017-12-23T06:47:52.014Z,0
2017-12-23T06:49:01.990Z,0
2017-12-23T06:50:11.762Z,0
2017-12-23T06:51:21.474Z,0
2017-12-23T06:52:31.469Z,0
2017-12-23T06:53:41.452Z,0
2017-12-23T06:54:51.183Z,0
2017-12-23T06:56:01.159Z,0
2017-12-23T06:57:11.136Z,0
2017-12-23T06:58:21.116Z,0
2017-12-23T06:59:31.101Z,0
2017-12-23T07:00:40.815Z,0
2017-12-23T07:01:50.798Z,0
2017-12-23T07:03:00.779Z,0
2017-12-23T07:04:10.757Z,0
2017-12-23T07:05:20.741Z,0
2017-12-23T07:06:30.720Z,0
2017-12-23T07:07:40.697Z,0
2017-12-23T07:08:50.143Z,0
2017-12-23T07:10:00.125Z,0
2017-12-23T07:11:10.105Z,0
2017-12-23T07:12:20.147Z,0
2017-12-23T07:13:29.861Z,0
2017-12-23T07:14:39.840Z,0
2017-12-23T07:15:49.823Z,0
2017-12-23T07:16:59.536Z,0
2017-12-23T07:18:09.513Z,0
2017-12-23T07:19:19.496Z,0
2017-12-23T07:20:29.210Z,0
2017-12-23T07:21:39.188Z,0
2017-12-23T07:22:49.164Z,0
2017-12-23T07:23:58.885Z,0
2017-12-23T07:25:08.870Z,0
2017-12-23T07:26:18.582Z,0
2017-12-23T07:27:28.564Z,0
2017-12-23T07:28:38.538Z,0
2017-12-23T07:29:48.515Z,0
2017-12-23T07:30:58.544Z,0
2017-12-23T07:32:08.258Z,0
2017-12-23T07:33:18.233Z,0
2017-12-23T07:34:27.944Z,0
2017-12-23T07:35:37.984Z,0
2017-12-23T07:36:47.970Z,0
2017-12-23T07:37:57.428Z,0
2017-12-23T07:39:07.410Z,0
2017-12-23T07:40:17.395Z,0
2017-12-23T07:41:27.123Z,0
2017-12-23T07:42:36.832Z,0
2017-12-23T07:43:46.809Z,0
2017-12-23T07:44:56.524Z,0
2017-12-23T07:46:06.504Z,0
2017-12-23T07:47:16.508Z,0
2017-12-23T07:48:25.947Z,0
2017-12-23T07:49:35.924Z,0
2017-12-23T07:50:45.925Z,0
2017-12-23T07:51:55.641Z,0
2017-12-23T07:53:05.620Z,0
2017-12-23T07:54:15.600Z,0
2017-12-23T07:55:25.577Z,0
2017-12-23T07:56:35.288Z,0
2017-12-23T07:57:45.276Z,0
2017-12-23T07:58:55.254Z,0
2017-12-23T08:00:05.234Z,0
2017-12-23T08:01:15.213Z,0
2017-12-23T08:02:25.500Z,0
2017-12-23T08:03:35.245Z,0
2017-12-23T08:04:44.965Z,0
2017-12-23T08:05:54.941Z,0
2017-12-23T08:07:04.705Z,0
2017-12-23T08:08:14.698Z,0
2017-12-23T08:09:24.682Z,0
2017-12-23T08:10:34.683Z,0
2017-12-23T08:11:44.663Z,0
2017-12-23T08:12:54.640Z,5
2017-12-23T08:14:04.707Z,5
2017-12-23T08:15:14.424Z,5
2017-12-23T08:16:24.406Z,5
2017-12-23T08:17:34.388Z,5
2017-12-23T08:18:44.170Z,5
2017-12-23T08:19:54.227Z,5
2017-12-23T08:21:04.214Z,5
2017-12-23T08:22:14.191Z,5
2017-12-23T08:23:23.906Z,5
2017-12-23T08:24:33.884Z,5
2017-12-23T08:25:43.861Z,5
2017-12-23T08:26:53.576Z,10
2017-12-23T08:28:03.551Z,10
2017-12-23T08:29:13.543Z,10
2017-12-23T08:30:23.522Z,10
2017-12-23T08:31:33.505Z,10
2017-12-23T08:32:43.490Z,10
2017-12-23T08:33:53.207Z,10
2017-12-23T08:35:03.202Z,15
2017-12-23T08:36:13.193Z,15
2017-12-23T08:37:22.908Z,15
2017-12-23T08:38:32.902Z,15
2017-12-23T08:39:42.893Z,15
2017-12-23T08:40:52.877Z,15
2017-12-23T08:42:02.595Z,15
2017-12-23T08:43:12.578Z,20
2017-12-23T08:44:22.292Z,20
2017-12-23T08:45:32.268Z,20
2017-12-23T08:46:42.253Z,20
2017-12-23T08:47:52.235Z,20
2017-12-23T08:49:02.217Z,25
2017-12-23T08:50:12.201Z,25
2017-12-23T08:51:21.650Z,25
2017-12-23T08:52:31.364Z,25
2017-12-23T08:53:41.343Z,25
2017-12-23T08:54:51.331Z,30
2017-12-23T08:56:01.314Z,30
2017-12-23T08:57:11.296Z,30
2017-12-23T08:58:20.483Z,30
2017-12-23T08:59:30.463Z,35
2017-12-23T09:00:40.440Z,35
2017-12-23T09:01:50.419Z,35
2017-12-23T09:03:00.406Z,35
2017-12-23T09:04:10.388Z,35
2017-12-23T09:05:20.382Z,40
2017-12-23T09:06:30.360Z,40
2017-12-23T09:07:40.335Z,40
2017-12-23T09:08:50.312Z,40
2017-12-23T09:10:00.295Z,40
2017-12-23T09:11:10.276Z,40
2017-12-23T09:12:20.255Z,45
2017-12-23T09:13:30.235Z,45
2017-12-23T09:14:40.218Z,45
2017-12-23T09:15:49.668Z,50
2017-12-23T09:16:59.394Z,50
2017-12-23T09:18:09.373Z,50
2017-12-23T09:19:19.355Z,50
2017-12-23T09:20:29.336Z,50
2017-12-23T09:21:39.316Z,55
2017-12-23T09:22:49.030Z,55
2017-12-23T09:23:59.010Z,60
2017-12-23T09:25:08.996Z,60
2017-12-23T09:26:18.990Z,65
2017-12-23T09:27:28.709Z,65
2017-12-23T09:28:38.689Z,65
2017-12-23T09:29:48.683Z,60
2017-12-23T09:30:58.664Z,60
2017-12-23T09:32:08.119Z,60
2017-12-23T09:33:17.846Z,60
2017-12-23T09:34:27.830Z,60
2017-12-23T09:35:37.546Z,65
2017-12-23T09:36:47.529Z,65
2017-12-23T09:37:56.978Z,65
2017-12-23T09:39:06.694Z,65
2017-12-23T09:40:16.683Z,65
2017-12-23T09:41:26.663Z,70
2017-12-23T09:42:36.645Z,70
2017-12-23T09:43:46.638Z,70
2017-12-23T09:44:56.355Z,75
2017-12-23T09:46:05.803Z,75
2017-12-23T09:47:15.783Z,75
2017-12-23T09:48:25.762Z,75
2017-12-23T09:49:35.746Z,75
2017-12-23T09:50:45.726Z,75
2017-12-23T09:51:55.710Z,75
2017-12-23T09:53:05.446Z,75
2017-12-23T09:54:15.179Z,75
2017-12-23T09:55:24.892Z,75
2017-12-23T09:56:34.879Z,75
2017-12-23T09:57:44.596Z,80
2017-12-23T09:58:54.582Z,85
2017-12-23T10:00:04.565Z,80
2017-12-23T10:01:14.549Z,85
2017-12-23T10:02:24.270Z,85
2017-12-23T10:03:33.451Z,85
2017-12-23T10:04:43.427Z,85
2017-12-23T10:05:53.407Z,85
2017-12-23T10:07:03.391Z,85
2017-12-23T10:08:13.112Z,85
2017-12-23T10:09:23.093Z,85
2017-12-23T10:10:32.541Z,85
2017-12-23T10:11:42.266Z,85
2017-12-23T10:12:52.258Z,85
2017-12-23T10:14:02.241Z,85
2017-12-23T10:15:12.233Z,85
2017-12-23T10:16:24.218Z,85
2017-12-23T10:17:34.196Z,90
2017-12-23T10:18:44.180Z,90
2017-12-23T10:19:54.161Z,90
2017-12-23T10:21:04.142Z,85
2017-12-23T10:22:13.859Z,85
2017-12-23T10:23:23.837Z,85
2017-12-23T10:24:33.554Z,90
2017-12-23T10:25:43.536Z,90
2017-12-23T10:26:53.520Z,90
2017-12-23T10:28:03.500Z,90
2017-12-23T10:29:13.481Z,90
2017-12-23T10:30:23.457Z,90
2017-12-23T10:31:33.444Z,90
2017-12-23T10:32:43.436Z,95
2017-12-23T10:33:53.422Z,90
2017-12-23T10:35:03.140Z,95
2017-12-23T10:36:13.123Z,95
2017-12-23T10:37:23.113Z,95
2017-12-23T10:38:32.835Z,100
2017-12-23T10:39:42.815Z,100
2017-12-23T10:40:52.803Z,105
2017-12-23T10:42:02.590Z,105
2017-12-23T10:43:12.578Z,110
2017-12-23T10:44:22.556Z,110
2017-12-23T10:45:32.537Z,110
2017-12-23T10:46:42.270Z,110
2017-12-23T10:47:51.987Z,110
2017-12-23T10:49:01.968Z,110
2017-12-23T10:50:11.957Z,110
2017-12-23T10:51:22.239Z,110
2017-12-23T10:52:32.221Z,105
2017-12-23T10:53:42.205Z,105
2017-12-23T10:54:52.195Z,110
2017-12-23T10:56:01.916Z,110
2017-12-23T10:57:12.231Z,110
2017-12-23T10:58:22.220Z,105
2017-12-23T10:59:32.200Z,105
2017-12-23T11:00:42.186Z,105
2017-12-23T11:01:52.174Z,105
2017-12-23T11:03:04.160Z,105
2017-12-23T11:04:13.886Z,105
2017-12-23T11:05:23.626Z,100
2017-12-23T11:06:33.343Z,100
2017-12-23T11:07:43.061Z,100
2017-12-23T11:08:53.038Z,100
2017-12-23T11:10:03.034Z,100
2017-12-23T11:11:12.750Z,95
2017-12-23T11:12:22.739Z,95
2017-12-23T11:13:32.455Z,95
2017-12-23T11:14:42.170Z,95
2017-12-23T11:15:52.174Z,100
2017-12-23T11:17:02.161Z,100
2017-12-23T11:18:11.875Z,105
2017-12-23T11:19:21.856Z,100
2017-12-23T11:20:31.836Z,100
2017-12-23T11:21:41.819Z,100
2017-12-23T11:22:51.806Z,105
2017-12-23T11:24:01.782Z,105
2017-12-23T11:25:11.775Z,110
2017-12-23T11:26:21.761Z,110
2017-12-23T11:27:31.745Z,110
2017-12-23T11:28:41.730Z,115
2017-12-23T11:29:51.714Z,120
2017-12-23T11:31:01.693Z,120
2017-12-23T11:32:11.147Z,120
2017-12-23T11:33:21.328Z,115
2017-12-23T11:34:31.310Z,110
2017-12-23T11:35:41.291Z,110
2017-12-23T11:36:51.281Z,110
2017-12-23T11:38:01.263Z,100
2017-12-23T11:39:11.038Z,100
2017-12-23T11:40:20.755Z,100
2017-12-23T11:41:30.734Z,95
2017-12-23T11:42:40.719Z,100
2017-12-23T11:43:50.435Z,95
2017-12-23T11:44:59.888Z,95
2017-12-23T11:46:09.607Z,95
2017-12-23T11:47:19.591Z,90
2017-12-23T11:48:29.576Z,90
2017-12-23T11:49:39.562Z,80
2017-12-23T11:50:49.552Z,75
2017-12-23T11:51:59.529Z,75
2017-12-23T11:53:09.513Z,75
2017-12-23T11:54:19.501Z,80
2017-12-23T11:55:29.483Z,80
2017-12-23T11:56:39.530Z,80
2017-12-23T11:57:49.516Z,80
2017-12-23T11:58:59.499Z,80
2017-12-23T12:00:09.216Z,80
2017-12-23T12:01:18.671Z,80
2017-12-23T12:02:28.405Z,80
2017-12-23T12:03:38.447Z,80
2017-12-23T12:04:48.431Z,85
2017-12-23T12:05:58.417Z,90
2017-12-23T12:07:08.435Z,95
2017-12-23T12:08:18.149Z,100
2017-12-23T12:09:27.865Z,100
2017-12-23T12:10:37.856Z,95
2017-12-23T12:11:47.838Z,90
2017-12-23T12:12:57.823Z,85
2017-12-23T12:14:07.835Z,85
2017-12-23T12:15:17.618Z,90
2017-12-23T12:16:26.803Z,95
2017-12-23T12:17:36.796Z,95
2017-12-23T12:18:46.781Z,95
2017-12-23T12:19:56.772Z,95
2017-12-23T12:21:06.791Z,90
2017-12-23T12:22:16.823Z,90
2017-12-23T12:23:26.825Z,85
2017-12-23T12:24:36.824Z,85
2017-12-23T12:25:46.811Z,80
2017-12-23T12:26:56.795Z,80
2017-12-23T12:28:06.781Z,80
2017-12-23T12:29:16.767Z,80
2017-12-23T12:30:26.750Z,80
2017-12-23T12:31:36.734Z,85
2017-12-23T12:32:46.187Z,90
2017-12-23T12:33:56.174Z,95
2017-12-23T12:35:05.689Z,95
2017-12-23T12:36:15.411Z,95
2017-12-23T12:37:25.395Z,90
2017-12-23T12:38:35.378Z,90
2017-12-23T12:39:45.361Z,90
2017-12-23T12:40:55.346Z,85
2017-12-23T12:42:04.810Z,85
2017-12-23T12:43:14.532Z,90
2017-12-23T12:44:24.520Z,95
2017-12-23T12:45:34.508Z,100
2017-12-23T12:46:44.490Z,105
2017-12-23T12:47:53.948Z,110
2017-12-23T12:49:03.930Z,105
2017-12-23T12:50:13.967Z,100
2017-12-23T12:51:24.011Z,95
2017-12-23T12:52:33.998Z,90
2017-12-23T12:53:43.988Z,85
2017-12-23T12:54:53.973Z,80
2017-12-23T12:56:03.957Z,75
2017-12-23T12:57:13.727Z,75
2017-12-23T12:58:23.715Z,75
2017-12-23T12:59:33.698Z,70
2017-12-23T13:00:43.419Z,70
2017-12-23T13:01:53.444Z,70
2017-12-23T13:03:03.431Z,70
2017-12-23T13:04:13.415Z,70
2017-12-23T13:05:23.176Z,70
2017-12-23T13:06:33.162Z,70
2017-12-23T13:07:42.882Z,70
2017-12-23T13:08:52.601Z,70
2017-12-23T13:10:02.587Z,75
2017-12-23T13:11:12.577Z,75
2017-12-23T13:12:22.296Z,80
2017-12-23T13:13:32.020Z,80
2017-12-23T13:14:42.003Z,80
2017-12-23T13:15:52.030Z,80
2017-12-23T13:17:02.014Z,80
2017-12-23T13:18:12.001Z,80
2017-12-23T13:19:21.991Z,80
2017-12-23T13:20:31.988Z,85
2017-12-23T13:21:41.980Z,85
2017-12-23T13:22:51.962Z,80
2017-12-23T13:24:01.744Z,80
2017-12-23T13:25:11.737Z,80
2017-12-23T13:26:21.467Z,80
2017-12-23T13:27:31.451Z,75
2017-12-23T13:28:41.456Z,70
2017-12-23T13:29:51.587Z,65
2017-12-23T13:31:01.577Z,60
2017-12-23T13:32:11.304Z,50
2017-12-23T13:33:21.026Z,50
2017-12-23T13:34:30.743Z,45
2017-12-23T13:35:40.721Z,40
2017-12-23T13:36:50.437Z,40
2017-12-23T13:38:00.423Z,35
2017-12-23T13:39:10.472Z,30
2017-12-23T13:40:20.457Z,30
2017-12-23T13:41:30.445Z,25
2017-12-23T13:42:40.430Z,25
2017-12-23T13:43:50.415Z,20
2017-12-23T13:45:00.400Z,20
2017-12-23T13:46:10.122Z,20
2017-12-23T13:47:19.843Z,20
2017-12-23T13:48:29.829Z,20
2017-12-23T13:49:39.815Z,15
2017-12-23T13:50:49.805Z,15
2017-12-23T13:52:01.525Z,15
2017-12-23T13:53:11.567Z,15
2017-12-23T13:54:21.557Z,15
2017-12-23T13:55:31.540Z,15
2017-12-23T13:56:41.522Z,10
2017-12-23T13:57:51.247Z,10
2017-12-23T13:59:00.700Z,10
2017-12-23T14:00:10.434Z,10
2017-12-23T14:01:19.886Z,10
2017-12-23T14:02:29.876Z,10
2017-12-23T14:03:39.875Z,10
2017-12-23T14:04:49.866Z,10
2017-12-23T14:05:59.849Z,10
2017-12-23T14:07:09.833Z,5
2017-12-23T14:08:19.820Z,5
2017-12-23T14:09:29.800Z,5
2017-12-23T14:10:39.797Z,5
2017-12-23T14:11:49.781Z,5
2017-12-23T14:12:59.766Z,5
2017-12-23T14:14:09.751Z,5
2017-12-23T14:15:19.473Z,5
2017-12-23T14:16:29.457Z,5
2017-12-23T14:17:39.443Z,5
2017-12-23T14:18:49.429Z,5
2017-12-23T14:19:59.413Z,5
2017-12-23T14:21:09.399Z,5
2017-12-23T14:22:19.127Z,5
2017-12-23T14:23:29.109Z,5
2017-12-23T14:24:39.098Z,5
2017-12-23T14:25:49.083Z,5
2017-12-23T14:26:59.069Z,5
2017-12-23T14:28:09.051Z,5
2017-12-23T14:29:19.040Z,5
2017-12-23T14:30:28.763Z,5
2017-12-23T14:31:38.746Z,0
2017-12-23T14:32:48.739Z,0
2017-12-23T14:33:58.723Z,0
2017-12-23T14:35:08.706Z,0
2017-12-23T14:36:18.692Z,0
2017-12-23T14:37:28.685Z,0
2017-12-23T14:38:38.669Z,0
2017-12-23T14:39:48.393Z,0
2017-12-23T14:40:58.114Z,0
2017-12-23T14:42:07.569Z,0
2017-12-23T14:43:17.564Z,0
2017-12-23T14:44:27.281Z,0
2017-12-23T14:45:37.278Z,0
2017-12-23T14:46:47.267Z,0
2017-12-23T14:47:56.988Z,0
2017-12-23T14:49:06.708Z,0
2017-12-23T14:50:16.431Z,0
2017-12-23T14:51:26.420Z,0
2017-12-23T14:52:36.413Z,0
2017-12-23T14:53:46.129Z,0
2017-12-23T14:54:56.117Z,0
2017-12-23T14:56:06.106Z,0
2017-12-23T14:57:16.089Z,0
2017-12-23T14:58:26.076Z,0
2017-12-23T14:59:36.062Z,0
2017-12-23T15:00:46.047Z,0
2017-12-23T15:01:55.765Z,0
2017-12-23T15:03:05.485Z,0
2017-12-23T15:04:15.466Z,0
2017-12-23T15:05:25.474Z,0
2017-12-23T15:06:35.456Z,0
2017-12-23T15:07:45.441Z,0
2017-12-23T15:08:55.424Z,0
2017-12-23T15:10:05.148Z,0
2017-12-23T15:11:15.134Z,0
2017-12-23T15:12:25.120Z,0
2017-12-23T15:13:35.133Z,0
2017-12-23T15:14:45.173Z,0
2017-12-23T15:15:55.192Z,0
2017-12-23T15:17:05.180Z,0
2017-12-23T15:18:14.635Z,0
2017-12-23T15:19:24.619Z,0
2017-12-23T15:20:34.602Z,0
2017-12-23T15:21:44.326Z,0
2017-12-23T15:22:54.309Z,0
2017-12-23T15:24:04.291Z,0
2017-12-23T15:25:14.282Z,0
2017-12-23T15:26:24.002Z,0
2017-12-23T15:27:33.188Z,0
2017-12-23T15:28:43.211Z,0
2017-12-23T15:29:52.930Z,0
2017-12-23T15:31:02.648Z,0
2017-12-23T15:32:12.638Z,0
2017-12-23T15:33:22.626Z,0
2017-12-23T15:34:32.343Z,0
2017-12-23T15:35:42.326Z,0
2017-12-23T15:36:52.053Z,0
2017-12-23T15:38:02.111Z,0
2017-12-23T15:39:12.099Z,0
2017-12-23T15:40:22.089Z,0
2017-12-23T15:41:32.070Z,0
2017-12-23T15:42:42.058Z,0
2017-12-23T15:43:52.044Z,0
2017-12-23T15:45:02.039Z,0
2017-12-23T15:46:11.757Z,0
2017-12-23T15:47:21.742Z,0
2017-12-23T15:48:31.774Z,0
2017-12-23T15:49:41.240Z,0
2017-12-23T15:50:51.222Z,0
2017-12-23T15:52:01.214Z,0
2017-12-23T15:53:11.206Z,0
2017-12-23T15:54:20.925Z,0
2017-12-23T15:55:30.642Z,0
2017-12-23T15:56:40.634Z,0
2017-12-23T15:57:50.619Z,0
2017-12-23T15:59:00.342Z,0
2017-12-23T16:00:10.329Z,0
2017-12-23T16:01:20.315Z,0
2017-12-23T16:02:30.299Z,0
2017-12-23T16:03:40.287Z,0
2017-12-23T16:04:50.270Z,0
2017-12-23T16:05:59.986Z,0
2017-12-23T16:07:09.971Z,0
2017-12-23T16:08:19.160Z,0
2017-12-23T16:09:28.880Z,0
2017-12-23T16:10:38.872Z,0
2017-12-23T16:11:48.588Z,0
2017-12-23T16:12:58.569Z,0
2017-12-23T16:14:08.558Z,0
2017-12-23T16:15:18.279Z,0
2017-12-23T16:16:28.322Z,0
2017-12-23T16:17:38.042Z,0
2017-12-23T16:18:48.031Z,0
2017-12-23T16:19:57.750Z,0
2017-12-23T16:21:07.740Z,0
2017-12-23T16:22:17.724Z,0
2017-12-23T16:23:27.446Z,0
2017-12-23T16:24:37.430Z,0
2017-12-23T16:25:47.472Z,0
2017-12-23T16:26:57.193Z,0
2017-12-23T16:28:06.921Z,0
2017-12-23T16:29:16.638Z,0
2017-12-23T16:30:26.356Z,0
2017-12-23T16:31:36.338Z,0
2017-12-23T16:32:46.325Z,0
2017-12-23T16:33:56.041Z,0
2017-12-23T16:35:05.795Z,0
2017-12-23T16:36:15.786Z,0
2017-12-23T16:37:25.515Z,0
2017-12-23T16:38:35.497Z,0
2017-12-23T16:39:45.481Z,0
2017-12-23T16:40:54.936Z,0
2017-12-23T16:42:04.656Z,0
2017-12-23T16:43:14.642Z,0
2017-12-23T16:44:24.360Z,0
2017-12-23T16:45:34.343Z,0
2017-12-23T16:46:44.064Z,0
2017-12-23T16:47:53.514Z,0
2017-12-23T16:49:03.493Z,0
2017-12-23T16:50:13.485Z,0
2017-12-23T16:51:23.469Z,0
2017-12-23T16:52:33.184Z,0
2017-12-23T16:53:42.904Z,0
2017-12-23T16:54:52.628Z,0
2017-12-23T16:56:02.612Z,0
2017-12-23T16:57:12.340Z,0
2017-12-23T16:58:22.330Z,0
2017-12-23T16:59:32.318Z,0
2017-12-23T17:00:42.040Z,0
2017-12-23T17:01:52.026Z,0